createdAt,value
2022-12-28T00:01:28.840Z,4.43
2022-12-28T00:03:56.278Z,3.60
2022-12-28T00:06:24.519Z,4.30
2022-12-28T00:08:56.187Z,5.10
2022-12-28T00:11:28.283Z,4.47
2022-12-28T00:13:59.785Z,4.47
2022-12-28T00:16:30.714Z,5.50
2022-12-28T00:18:59.437Z,5.43
2022-12-28T00:21:27.219Z,4.83
2022-12-28T00:23:57.940Z,5.00
2022-12-28T00:26:27.071Z,4.13
2022-12-28T00:28:58.311Z,4.50
2022-12-28T00:31:28.854Z,4.73
2022-12-28T00:33:56.085Z,4.37
2022-12-28T00:36:23.064Z,4.93
2022-12-28T00:38:49.976Z,3.83
2022-12-28T00:41:16.919Z,4.90
2022-12-28T00:43:44.805Z,4.80
2022-12-28T00:46:12.058Z,4.87
2022-12-28T00:48:39.220Z,5.10
2022-12-28T00:51:09.221Z,5.00
2022-12-28T00:53:36.420Z,5.07
2022-12-28T00:56:12.215Z,5.47
2022-12-28T00:58:39.777Z,4.63
2022-12-28T01:01:11.613Z,5.03
2022-12-28T01:03:39.189Z,4.43
2022-12-28T01:06:11.431Z,5.70
2022-12-28T01:08:39.596Z,4.80
2022-12-28T01:11:10.238Z,5.27
2022-12-28T01:13:37.856Z,4.77
2022-12-28T01:16:16.968Z,4.80
2022-12-28T01:18:45.288Z,4.87
2022-12-28T01:21:18.012Z,4.67
2022-12-28T01:23:46.324Z,4.70
2022-12-28T01:26:13.986Z,5.03
2022-12-28T01:28:41.296Z,4.50
2022-12-28T01:31:14.671Z,5.83
2022-12-28T01:33:42.657Z,4.13
2022-12-28T01:36:15.003Z,5.87
2022-12-28T01:38:42.687Z,5.00
2022-12-28T01:41:11.975Z,5.53
2022-12-28T01:43:48.006Z,5.20
2022-12-28T01:46:18.972Z,4.97
2022-12-28T01:48:51.098Z,4.80
2022-12-28T01:51:20.234Z,4.33
2022-12-28T01:53:50.491Z,4.07
2022-12-28T01:56:18.092Z,5.07
2022-12-28T01:58:46.398Z,5.97
2022-12-28T02:01:13.369Z,4.90
2022-12-28T02:03:40.779Z,5.40
2022-12-28T02:06:11.440Z,4.63
2022-12-28T02:08:56.586Z,4.27
2022-12-28T02:11:23.483Z,4.47
2022-12-28T02:13:52.542Z,5.07
2022-12-28T02:16:19.991Z,4.50
2022-12-28T02:18:48.363Z,5.20
2022-12-28T02:21:32.779Z,4.40
2022-12-28T02:24:34.143Z,4.50
2022-12-28T02:27:21.595Z,3.80
2022-12-28T02:30:02.512Z,4.70
2022-12-28T02:32:52.090Z,4.00
2022-12-28T02:35:25.456Z,4.83
2022-12-28T02:38:05.548Z,4.33
2022-12-28T02:40:39.621Z,3.90
2022-12-28T02:43:06.918Z,4.70
2022-12-28T02:46:07.103Z,4.30
2022-12-28T02:49:03.663Z,4.90
2022-12-28T02:51:58.957Z,4.90
2022-12-28T02:55:12.799Z,4.33
2022-12-28T02:58:01.732Z,4.40
2022-12-28T03:00:40.112Z,4.27
2022-12-28T03:03:24.769Z,3.30
2022-12-28T03:06:37.868Z,4.10
2022-12-28T03:09:30.385Z,4.87
2022-12-28T03:12:08.631Z,4.80
2022-12-28T03:14:48.130Z,4.50
2022-12-28T03:17:36.524Z,4.00
2022-12-28T03:20:30.535Z,4.03
2022-12-28T03:23:18.523Z,4.00
2022-12-28T03:26:09.235Z,4.30
2022-12-28T03:28:58.346Z,4.70
2022-12-28T03:31:27.735Z,4.50
2022-12-28T03:34:06.623Z,5.57
2022-12-28T03:36:40.163Z,4.50
2022-12-28T03:39:36.947Z,3.80
2022-12-28T03:42:30.088Z,3.97
2022-12-28T03:45:45.856Z,4.13
2022-12-28T03:48:16.655Z,4.90
2022-12-28T03:50:46.465Z,4.13
2022-12-28T03:53:15.023Z,4.60
2022-12-28T03:55:43.627Z,4.63
2022-12-28T03:58:10.581Z,5.53
2022-12-28T04:00:37.358Z,4.37
2022-12-28T04:03:04.186Z,4.77
2022-12-28T04:05:31.043Z,4.30
2022-12-28T04:07:58.088Z,4.40
2022-12-28T04:10:24.791Z,5.10
2022-12-28T04:12:56.323Z,5.03
2022-12-28T04:15:23.773Z,4.50
2022-12-28T04:17:50.809Z,4.60
2022-12-28T04:20:17.579Z,4.90
2022-12-28T04:22:45.253Z,4.93
2022-12-28T04:25:12.194Z,5.20
2022-12-28T04:27:38.959Z,5.50
2022-12-28T04:30:06.418Z,5.50
2022-12-28T04:32:33.092Z,4.87
2022-12-28T04:34:59.747Z,5.53
2022-12-28T04:37:26.418Z,5.70
2022-12-28T04:39:55.063Z,4.63
2022-12-28T04:42:25.488Z,5.40
2022-12-28T04:44:52.218Z,5.70
2022-12-28T04:47:19.701Z,5.70
2022-12-28T04:49:46.333Z,5.30
2022-12-28T04:52:13.506Z,5.53
2022-12-28T04:54:40.861Z,5.43
2022-12-28T04:57:07.878Z,6.13
2022-12-28T04:59:36.470Z,6.70
2022-12-28T05:02:03.241Z,5.20
2022-12-28T05:04:30.014Z,5.10
2022-12-28T05:06:56.661Z,6.40
2022-12-28T05:09:24.063Z,5.90
2022-12-28T05:11:51.334Z,5.17
2022-12-28T05:14:17.977Z,5.30
2022-12-28T05:16:45.070Z,5.67
2022-12-28T05:19:11.731Z,4.80
2022-12-28T05:21:40.352Z,5.50
2022-12-28T05:24:07.462Z,6.50
2022-12-28T05:26:35.626Z,5.70
2022-12-28T05:29:02.432Z,5.47
2022-12-28T05:31:29.249Z,5.07
2022-12-28T05:33:56.061Z,5.30
2022-12-28T05:36:26.329Z,4.80
2022-12-28T05:38:54.734Z,4.47
2022-12-28T05:41:27.448Z,5.13
2022-12-28T05:43:55.836Z,5.00
2022-12-28T05:46:28.324Z,3.90
2022-12-28T05:48:55.686Z,4.43
2022-12-28T05:51:25.085Z,4.30
2022-12-28T05:53:52.074Z,5.20
2022-12-28T05:56:22.378Z,4.80
2022-12-28T05:59:06.878Z,4.43
2022-12-28T06:01:37.341Z,4.00
2022-12-28T06:04:11.930Z,4.20
2022-12-28T06:06:38.649Z,4.80
2022-12-28T06:09:05.405Z,4.53
2022-12-28T06:11:32.495Z,4.90
2022-12-28T06:14:00.049Z,4.03
2022-12-28T06:16:36.644Z,5.10
2022-12-28T06:19:11.820Z,4.33
2022-12-28T06:21:40.367Z,4.60
2022-12-28T06:24:08.343Z,4.83
2022-12-28T06:26:36.891Z,4.40
2022-12-28T06:29:04.254Z,4.67
2022-12-28T06:31:34.840Z,4.10
2022-12-28T06:34:03.030Z,4.57
2022-12-28T06:36:35.839Z,4.07
2022-12-28T06:39:04.906Z,3.90
2022-12-28T06:41:31.882Z,4.97
2022-12-28T06:43:59.334Z,4.10
2022-12-28T06:46:30.477Z,4.50
2022-12-28T06:48:57.417Z,4.40
2022-12-28T06:51:27.106Z,4.50
2022-12-28T06:53:54.730Z,4.73
2022-12-28T06:56:24.625Z,4.27
2022-12-28T06:58:56.898Z,4.40
2022-12-28T07:01:33.472Z,4.60
2022-12-28T07:04:01.386Z,4.70
2022-12-28T07:06:30.620Z,5.10
2022-12-28T07:09:02.732Z,4.27
2022-12-28T07:11:29.639Z,4.47
2022-12-28T07:13:57.251Z,4.10
2022-12-28T07:16:25.385Z,4.07
2022-12-28T07:18:52.449Z,4.77
2022-12-28T07:21:33.530Z,4.40
2022-12-28T07:24:00.865Z,5.40
2022-12-28T07:26:30.460Z,4.57
2022-12-28T07:29:16.148Z,5.43
2022-12-28T07:32:03.303Z,6.10
2022-12-28T07:34:50.292Z,5.30
2022-12-28T07:37:37.268Z,4.80
2022-12-28T07:40:04.396Z,4.30
2022-12-28T07:42:32.254Z,4.20
2022-12-28T07:44:59.009Z,4.03
2022-12-28T07:47:25.820Z,4.83
2022-12-28T07:49:52.461Z,4.37
2022-12-28T07:52:19.166Z,4.83
2022-12-28T07:54:46.193Z,3.87
2022-12-28T07:57:12.854Z,4.00
2022-12-28T07:59:39.504Z,4.10
2022-12-28T08:02:06.527Z,4.43
2022-12-28T08:04:33.611Z,4.10
2022-12-28T08:07:00.266Z,4.13
2022-12-28T08:09:26.967Z,3.97
2022-12-28T08:11:53.763Z,3.40
2022-12-28T08:14:20.464Z,3.70
2022-12-28T08:16:47.140Z,4.40
2022-12-28T08:19:14.025Z,3.47
2022-12-28T08:21:45.329Z,3.53
2022-12-28T08:24:17.725Z,3.80
2022-12-28T08:26:45.367Z,4.00
2022-12-28T08:29:19.085Z,3.63
2022-12-28T08:31:47.595Z,3.63
2022-12-28T08:34:17.258Z,3.70
2022-12-28T08:36:44.651Z,3.60
2022-12-28T08:39:11.672Z,3.77
2022-12-28T08:41:38.674Z,3.10
2022-12-28T08:44:05.970Z,3.40
2022-12-28T08:46:35.699Z,4.10
2022-12-28T08:49:03.955Z,3.40
2022-12-28T08:51:36.849Z,3.40
2022-12-28T08:54:04.116Z,3.17
2022-12-28T08:56:33.798Z,3.37
2022-12-28T08:59:01.573Z,3.73
2022-12-28T09:01:43.731Z,3.03
2022-12-28T09:04:20.381Z,3.00
2022-12-28T09:06:48.282Z,3.30
2022-12-28T09:09:17.808Z,3.77
2022-12-28T09:11:45.689Z,2.93
2022-12-28T09:14:22.016Z,3.50
2022-12-28T09:16:50.435Z,3.20
2022-12-28T09:19:17.443Z,4.10
2022-12-28T09:21:48.825Z,3.37
2022-12-28T09:24:15.892Z,3.63
2022-12-28T09:26:42.804Z,3.20
2022-12-28T09:29:12.876Z,3.47
2022-12-28T09:31:41.499Z,3.40
2022-12-28T09:37:00.225Z,3.10
2022-12-28T09:39:27.621Z,3.40
2022-12-28T09:42:03.053Z,3.20
2022-12-28T09:44:29.961Z,3.10
2022-12-28T09:47:19.002Z,3.33
2022-12-28T09:50:07.418Z,3.03
2022-12-28T09:53:05.276Z,2.73
2022-12-28T09:55:38.207Z,3.00
2022-12-28T09:58:12.973Z,2.70
2022-12-28T10:00:47.899Z,3.10
2022-12-28T10:03:24.993Z,3.00
2022-12-28T10:05:52.253Z,2.53
2022-12-28T10:08:22.378Z,3.60
2022-12-28T10:10:51.567Z,3.03
2022-12-28T10:16:19.615Z,3.20
2022-12-28T10:18:47.888Z,2.70
2022-12-28T10:21:18.506Z,2.70
2022-12-28T10:24:20.979Z,2.70
2022-12-28T10:26:35.736Z,3.20
2022-12-28T10:29:02.629Z,3.47
2022-12-28T10:31:32.746Z,3.03
2022-12-28T10:34:00.135Z,3.13
2022-12-28T10:36:33.806Z,2.60
2022-12-28T10:39:01.997Z,4.93
2022-12-28T10:41:37.514Z,3.00
2022-12-28T10:44:39.249Z,3.40
2022-12-28T10:47:28.272Z,2.93
2022-12-28T10:50:26.582Z,3.43
2022-12-28T10:52:42.105Z,3.20
2022-12-28T10:55:30.858Z,2.80
2022-12-28T10:58:33.395Z,3.00
2022-12-28T11:01:26.450Z,3.00
2022-12-28T11:03:56.467Z,3.50
2022-12-28T11:06:27.501Z,3.30
2022-12-28T11:09:04.082Z,3.10
2022-12-28T11:11:32.527Z,3.00
2022-12-28T11:14:19.708Z,2.83
2022-12-28T11:16:46.667Z,2.80
2022-12-28T11:19:14.229Z,2.57
2022-12-28T11:21:42.986Z,2.77
2022-12-28T11:24:18.087Z,2.80
2022-12-28T11:26:48.940Z,2.50
2022-12-28T11:29:18.504Z,2.50
2022-12-28T11:32:08.806Z,2.60
2022-12-28T11:34:38.360Z,2.83
2022-12-28T11:37:05.209Z,2.70
2022-12-28T11:39:41.850Z,2.50
2022-12-28T11:44:56.714Z,2.67
2022-12-28T11:47:33.478Z,2.43
2022-12-28T11:50:36.537Z,2.83
2022-12-28T11:53:10.537Z,2.60
2022-12-28T11:55:47.901Z,3.33
2022-12-28T11:58:43.824Z,4.27
2022-12-28T12:01:37.415Z,3.50
2022-12-28T12:04:04.324Z,3.30
2022-12-28T12:06:43.410Z,4.40
2022-12-28T12:09:22.739Z,5.03
2022-12-28T12:11:50.957Z,3.50
2022-12-28T12:14:40.429Z,3.43
2022-12-28T12:17:43.139Z,2.80
2022-12-28T12:20:47.496Z,2.80
2022-12-28T12:23:32.816Z,3.20
2022-12-28T12:26:10.206Z,2.67
2022-12-28T12:28:47.981Z,3.17
2022-12-28T12:31:26.122Z,2.57
2022-12-28T12:33:58.126Z,2.50
2022-12-28T12:36:58.414Z,2.47
2022-12-28T12:39:50.824Z,2.30
2022-12-28T12:42:33.888Z,3.03
2022-12-28T12:45:15.357Z,3.60
2022-12-28T12:48:08.308Z,2.47
2022-12-28T12:50:41.819Z,2.50
2022-12-28T12:53:48.422Z,2.20
2022-12-28T12:56:33.789Z,2.70
2022-12-28T12:59:46.524Z,2.70
2022-12-28T13:02:22.733Z,2.20
2022-12-28T13:04:50.975Z,2.83
2022-12-28T13:07:25.781Z,2.70
2022-12-28T13:09:55.557Z,2.30
2022-12-28T13:12:24.758Z,2.43
2022-12-28T13:15:04.790Z,2.60
2022-12-28T13:17:35.348Z,2.43
2022-12-28T13:20:20.937Z,2.57
2022-12-28T13:22:49.614Z,2.67
2022-12-28T13:25:31.935Z,2.90
2022-12-28T13:28:01.445Z,2.73
2022-12-28T13:30:29.583Z,2.60
2022-12-28T13:32:59.353Z,2.03
2022-12-28T13:35:32.017Z,2.27
2022-12-28T13:38:13.632Z,2.50
2022-12-28T13:40:48.868Z,3.00
2022-12-28T13:43:47.727Z,2.87
2022-12-28T13:46:19.742Z,2.83
2022-12-28T13:48:53.946Z,2.57
2022-12-28T13:51:22.002Z,2.47
2022-12-28T13:53:54.739Z,2.23
2022-12-28T13:56:22.874Z,2.73
2022-12-28T13:59:06.548Z,3.27
2022-12-28T14:01:47.040Z,3.00
2022-12-28T14:04:51.846Z,2.77
2022-12-28T14:07:16.014Z,2.57
2022-12-28T14:09:43.969Z,2.37
2022-12-28T14:12:13.418Z,2.93
2022-12-28T14:14:42.045Z,2.97
2022-12-28T14:17:09.813Z,2.30
2022-12-28T14:19:37.090Z,2.97
2022-12-28T14:22:25.785Z,3.17
2022-12-28T14:25:14.292Z,2.63
2022-12-28T14:27:57.762Z,2.53
2022-12-28T14:30:29.814Z,2.63
2022-12-28T14:32:57.938Z,2.50
2022-12-28T14:35:28.095Z,3.30
2022-12-28T14:37:58.753Z,3.23
2022-12-28T14:40:28.683Z,2.50
2022-12-28T14:43:04.056Z,2.57
2022-12-28T14:48:40.493Z,2.60
2022-12-28T14:51:17.501Z,3.00
2022-12-28T14:53:45.606Z,3.60
2022-12-28T14:56:18.437Z,2.80
2022-12-28T14:58:53.329Z,2.70
2022-12-28T15:00:16.203Z,2.47
2022-12-28T15:01:21.798Z,2.77
2022-12-28T15:03:57.975Z,3.27
2022-12-28T15:06:30.171Z,2.90
2022-12-28T15:08:59.223Z,2.63
2022-12-28T15:11:28.054Z,2.87
2022-12-28T15:13:54.846Z,3.17
2022-12-28T15:16:25.347Z,2.80
2022-12-28T15:18:52.956Z,3.83
2022-12-28T15:21:21.634Z,2.97
2022-12-28T15:23:52.932Z,3.03
2022-12-28T15:26:20.245Z,3.17
2022-12-28T15:28:47.935Z,3.43
2022-12-28T15:31:20.200Z,3.53
2022-12-28T15:33:47.629Z,2.70
2022-12-28T15:36:18.095Z,2.73
2022-12-28T15:38:46.168Z,3.13
2022-12-28T15:41:31.698Z,2.87
2022-12-28T15:43:58.336Z,3.10
2022-12-28T15:46:25.116Z,3.30
2022-12-28T15:48:52.007Z,2.90
2022-12-28T15:51:18.751Z,3.57
2022-12-28T15:53:45.394Z,3.70
2022-12-28T15:56:31.481Z,3.00
2022-12-28T15:58:59.678Z,2.77
2022-12-28T16:01:28.668Z,3.20
2022-12-28T16:03:57.830Z,3.33
2022-12-28T16:06:26.289Z,3.40
2022-12-28T16:08:54.434Z,2.93
2022-12-28T16:11:22.174Z,3.63
2022-12-28T16:13:53.539Z,3.10
2022-12-28T16:16:21.511Z,3.37
2022-12-28T16:18:49.612Z,2.67
2022-12-28T16:21:16.676Z,3.77
2022-12-28T16:23:44.631Z,3.03
2022-12-28T16:26:13.123Z,3.40
2022-12-28T16:28:40.512Z,2.80
2022-12-28T16:31:07.598Z,2.50
2022-12-28T16:33:34.306Z,2.60
2022-12-28T16:36:01.147Z,3.07
2022-12-28T16:38:28.818Z,3.10
2022-12-28T16:40:57.256Z,2.50
2022-12-28T16:43:24.201Z,2.50
2022-12-28T16:45:51.222Z,3.00
2022-12-28T16:48:17.971Z,3.00
2022-12-28T16:50:45.011Z,3.20
2022-12-28T16:53:12.345Z,3.47
2022-12-28T16:55:41.164Z,2.53
2022-12-28T16:58:08.797Z,3.00
2022-12-28T17:00:35.589Z,3.70
2022-12-28T17:03:02.872Z,2.60
2022-12-28T17:05:34.177Z,3.10
2022-12-28T17:08:01.838Z,3.70
2022-12-28T17:10:28.804Z,2.97
2022-12-28T17:12:56.152Z,3.60
2022-12-28T17:15:23.698Z,3.17
2022-12-28T17:17:51.176Z,3.07
2022-12-28T17:20:17.942Z,3.00
2022-12-28T17:22:44.658Z,2.93
2022-12-28T17:25:11.628Z,3.43
2022-12-28T17:27:38.599Z,3.03
2022-12-28T17:30:05.585Z,3.23
2022-12-28T17:32:33.808Z,3.30
2022-12-28T17:35:00.694Z,3.30
2022-12-28T17:37:27.338Z,2.90
2022-12-28T17:39:56.054Z,3.10
2022-12-28T17:42:22.731Z,3.37
2022-12-28T17:44:49.778Z,3.20
2022-12-28T17:47:16.459Z,3.90
2022-12-28T17:49:43.572Z,4.47
2022-12-28T17:52:10.602Z,3.80
2022-12-28T17:54:37.266Z,4.13
2022-12-28T17:57:04.641Z,4.50
2022-12-28T17:59:31.308Z,4.33
2022-12-28T18:01:58.697Z,4.90
2022-12-28T18:04:25.562Z,5.93
2022-12-28T18:06:52.222Z,5.50
2022-12-28T18:09:22.555Z,4.67
2022-12-28T18:11:53.898Z,3.53
2022-12-28T18:14:20.558Z,4.20
2022-12-28T18:16:47.651Z,4.97
2022-12-28T18:19:14.570Z,4.07
2022-12-28T18:21:41.306Z,4.50
2022-12-28T18:24:12.124Z,4.40
2022-12-28T18:26:39.668Z,4.03
2022-12-28T18:29:06.874Z,3.77
2022-12-28T18:31:33.695Z,4.67
2022-12-28T18:34:02.353Z,3.80
2022-12-28T18:36:29.373Z,4.10
2022-12-28T18:38:56.007Z,3.80
2022-12-28T18:41:22.789Z,3.60
2022-12-28T18:43:51.285Z,3.83
2022-12-28T18:46:18.768Z,3.87
2022-12-28T18:48:46.008Z,4.30
2022-12-28T18:51:17.559Z,4.30
2022-12-28T18:53:44.604Z,3.80
2022-12-28T18:56:14.471Z,5.13
2022-12-28T18:58:42.043Z,4.20
2022-12-28T19:01:32.324Z,4.10
2022-12-28T19:04:00.785Z,3.80
2022-12-28T19:06:29.106Z,4.40
2022-12-28T19:09:01.659Z,4.47
2022-12-28T19:11:28.962Z,4.40
2022-12-28T19:13:55.987Z,4.60
2022-12-28T19:16:30.271Z,4.10
2022-12-28T19:18:58.646Z,4.63
2022-12-28T19:21:29.525Z,4.20
2022-12-28T19:23:58.851Z,4.40
2022-12-28T19:26:25.791Z,5.77
2022-12-28T19:28:52.659Z,5.23
2022-12-28T19:31:19.429Z,4.47
2022-12-28T19:33:46.997Z,4.10
2022-12-28T19:36:13.693Z,4.43
2022-12-28T19:38:40.396Z,4.27
2022-12-28T19:41:13.399Z,4.23
2022-12-28T19:43:40.735Z,4.10
2022-12-28T19:46:23.266Z,3.87
2022-12-28T19:48:53.491Z,4.07
2022-12-28T19:51:20.206Z,3.93
2022-12-28T19:53:46.891Z,3.87
2022-12-28T19:56:16.873Z,4.10
2022-12-28T19:58:45.291Z,3.83
2022-12-28T20:01:18.176Z,4.20
2022-12-28T20:03:46.073Z,4.37
2022-12-28T20:06:16.646Z,4.53
2022-12-28T20:08:47.985Z,4.10
2022-12-28T20:11:15.767Z,4.07
2022-12-28T20:13:49.489Z,3.83
2022-12-28T20:16:16.381Z,3.70
2022-12-28T20:18:47.837Z,3.50
2022-12-28T20:21:20.195Z,3.93
2022-12-28T20:23:48.740Z,3.20
2022-12-28T20:26:16.720Z,3.83
2022-12-28T20:28:43.677Z,3.37
2022-12-28T20:31:13.812Z,3.40
2022-12-28T20:33:41.558Z,3.47
2022-12-28T20:36:20.078Z,3.47
2022-12-28T20:38:47.561Z,2.60
2022-12-28T20:41:37.423Z,3.50
2022-12-28T20:44:10.427Z,3.60
2022-12-28T20:46:37.775Z,2.73
2022-12-28T20:49:05.654Z,3.17
2022-12-28T20:51:32.902Z,3.57
2022-12-28T20:53:59.966Z,3.17
2022-12-28T20:56:27.354Z,3.10
2022-12-28T20:58:54.601Z,3.13
2022-12-28T21:01:22.008Z,3.07
2022-12-28T21:03:49.211Z,3.53
2022-12-28T21:06:16.185Z,3.17
2022-12-28T21:08:43.121Z,3.30
2022-12-28T21:11:10.286Z,3.27
2022-12-28T21:13:43.767Z,3.60
2022-12-28T21:16:12.769Z,2.90
2022-12-28T21:18:39.797Z,4.07
2022-12-28T21:21:13.071Z,2.77
2022-12-28T21:23:39.932Z,2.87
2022-12-28T21:26:11.337Z,2.70
2022-12-28T21:28:38.271Z,2.73
2022-12-28T21:31:06.273Z,2.70
2022-12-28T21:33:34.051Z,2.73
2022-12-28T21:36:16.233Z,2.40
2022-12-28T21:38:44.204Z,3.00
2022-12-28T21:41:16.698Z,2.87
2022-12-28T21:43:43.558Z,2.60
2022-12-28T21:46:14.758Z,2.90
2022-12-28T21:48:42.425Z,3.30
2022-12-28T21:51:34.034Z,3.10
2022-12-28T21:54:05.585Z,3.30
2022-12-28T21:56:34.408Z,3.20
2022-12-28T21:59:02.088Z,2.73
2022-12-28T22:01:48.014Z,2.60
2022-12-28T22:04:39.349Z,2.77
2022-12-28T22:07:07.774Z,2.77
2022-12-28T22:09:53.686Z,2.70
2022-12-28T22:12:36.196Z,3.03
2022-12-28T22:15:43.495Z,2.67
2022-12-28T22:21:05.170Z,2.83
2022-12-28T22:23:34.871Z,3.03
2022-12-28T22:26:02.579Z,3.00
2022-12-28T22:28:29.503Z,2.90
2022-12-28T22:30:56.646Z,2.60
2022-12-28T22:33:24.112Z,2.70
2022-12-28T22:35:51.030Z,2.70
2022-12-28T22:38:17.840Z,2.50
2022-12-28T22:40:44.731Z,2.57
2022-12-28T22:43:11.598Z,2.70
2022-12-28T22:45:38.523Z,3.23
2022-12-28T22:48:05.680Z,2.63
2022-12-28T22:50:34.024Z,2.50
2022-12-28T22:53:04.290Z,2.70
2022-12-28T22:55:31.250Z,2.40
2022-12-28T22:57:58.208Z,2.50
2022-12-28T23:00:25.331Z,2.37
2022-12-28T23:02:52.618Z,2.87
2022-12-28T23:05:19.670Z,2.30
2022-12-28T23:07:46.653Z,2.70
2022-12-28T23:10:13.618Z,2.50
2022-12-28T23:12:40.555Z,2.10
2022-12-28T23:15:22.107Z,2.47
2022-12-28T23:17:49.600Z,2.30
2022-12-28T23:20:36.162Z,2.23
2022-12-28T23:23:22.698Z,2.07
2022-12-28T23:26:08.141Z,2.10
2022-12-28T23:28:36.136Z,2.17
2022-12-28T23:31:03.319Z,2.33
2022-12-28T23:33:30.237Z,2.10
2022-12-28T23:36:01.585Z,2.50
2022-12-28T23:38:28.465Z,2.10
2022-12-28T23:41:15.302Z,2.40
2022-12-28T23:43:42.247Z,2.03
2022-12-28T23:46:09.155Z,2.17
2022-12-28T23:48:36.142Z,2.20
2022-12-28T23:51:08.503Z,1.90
2022-12-28T23:53:35.847Z,2.47
2022-12-28T23:56:02.729Z,2.30
2022-12-28T23:58:30.056Z,2.30
